Flagstaff, AZ

6:52 AM MST on August 22, 2014 (GMT -0700)
Bow and Arrow | Change Station
CLOSE
Current Station
Personal Weather Station
Location: Flagstaff, AZ
Elevation: 6900 ft
Nearby Weather Stations

Elev 6900 ft 35.16 °N, 111.66 °W | Updated 3 seconds ago

Overcast
Overcast
52.9 °F
Feels Like 52.9 °F
N
0.0
Wind Variable Wind from ESE
Gusts 0.0 mph

Today
High -- | Low -- °F
--% Chance of Precip.
Yesterday
High -- | Low -- °F
Precip. -- in
5:51 AM 7:06 PM
Waning Crescent, 8% visible
Pressure 30.05 in
Visibility 10.0 miles
Clouds Mostly Cloudy 7000 ft
Overcast 8500 ft
Dew Point 35 °F
Humidity 51%
Rainfall 0.00 in
Snow Depth 0 in
UV 0 out of 12
Pollen 4.90 out of 12
Air Quality Not available.
Flu Activity Not available.
METAR KFLG 221257Z 21004KT 10SM BKN070 OVC085 11/10 A3027 RMK AO2 SLP176 T01110100

More Conditions Fewer Conditions

Pressure 30.05 in
Visibility 10.0 miles
Clouds Mostly Cloudy 7000 ft
Overcast 8500 ft
Dew Point 35 °F
Humidity 51%
Rainfall 0.00 in
Snow Depth 0 in
UV 0 out of 12
Pollen 4.90 out of 12
Air Quality Not available.
Flu Activity Not available.
METAR KFLG 221257Z 21004KT 10SM BKN070 OVC085 11/10 A3027 RMK AO2 SLP176 T01110100

More Conditions Fewer Conditions

10-Day Weather Forecast

Almanac

Astronomy

Aug. 22, 2014 Rise Set
Actual Time 5:51 AM MST 7:06 PM MST
Civil Twilight 5:25 AM MST 7:32 PM MST
Nautical Twilight 4:53 AM MST 8:04 PM MST
Astronomical Twilight 4:20 AM MST 8:36 PM MST
Moon 3:20 AM MST 5:15 PM MST
Length of Visible Light 14h 07m
Length of Day
13h 14m
Tomorrow will be 2m 3s shorter.
Waning Crescent, 8% of the Moon is Illuminated
Today
Waning Crescent
Aug 25
New
Sep 2
First Quarter
Sep 8
Full
Sep 15
Last Quarter

Today's Extremes

State Highs State Lows

Community

WunderPhotos

Upload Photos

1,746,168 photos uploaded!

Nearby

Snow Depth

Station Depth Elevation
Mormon Mountain 0 in 7500 ft
White Horse Lake 0 in 7180 ft
Snowslide Canyon 1 in 9730 ft
Promontory 0 in 7930 ft
Heber 0 in 7640 ft

Earthquake Activity

City Distance Mag. Time & Date
No recent earthquake activity has been reported nearby.
Minimum magnitude displayed is 2.5.

Coastal Water Temperatures

Place Temperature
No Stations Reporting

Nearby Weather Stations